sensor_id;sensor_type;location;lat;lon;timestamp;P1;durP1;ratioP1;P2;durP2;ratioP2
56267;SDS011;42175;46.930;9.532;2023-03-20T00:01:12;2.65;;;1.30;;
56267;SDS011;42175;46.930;9.532;2023-03-20T00:03:41;2.40;;;1.10;;
56267;SDS011;42175;46.930;9.532;2023-03-20T00:06:14;2.50;;;1.10;;
56267;SDS011;42175;46.930;9.532;2023-03-20T00:08:41;3.10;;;1.23;;
56267;SDS011;42175;46.930;9.532;2023-03-20T00:14:04;2.05;;;1.10;;
56267;SDS011;42175;46.930;9.532;2023-03-20T00:16:38;1.00;;;0.80;;
56267;SDS011;42175;46.930;9.532;2023-03-20T00:19:09;2.35;;;1.00;;
56267;SDS011;42175;46.930;9.532;2023-03-20T00:21:41;1.45;;;1.00;;
56267;SDS011;42175;46.930;9.532;2023-03-20T00:24:10;2.40;;;1.30;;
56267;SDS011;42175;46.930;9.532;2023-03-20T00:26:35;1.83;;;1.00;;
56267;SDS011;42175;46.930;9.532;2023-03-20T00:29:02;1.25;;;0.93;;
56267;SDS011;42175;46.930;9.532;2023-03-20T00:31:30;1.40;;;0.85;;
56267;SDS011;42175;46.930;9.532;2023-03-20T00:36:31;4.63;;;1.13;;
56267;SDS011;42175;46.930;9.532;2023-03-20T00:38:56;1.92;;;0.88;;
56267;SDS011;42175;46.930;9.532;2023-03-20T00:44:22;2.45;;;1.10;;
56267;SDS011;42175;46.930;9.532;2023-03-20T00:46:53;3.25;;;0.90;;
56267;SDS011;42175;46.930;9.532;2023-03-20T00:49:35;2.58;;;1.00;;
56267;SDS011;42175;46.930;9.532;2023-03-20T00:52:02;1.98;;;0.80;;
56267;SDS011;42175;46.930;9.532;2023-03-20T00:54:29;2.08;;;0.95;;
56267;SDS011;42175;46.930;9.532;2023-03-20T00:56:59;1.30;;;0.80;;
56267;SDS011;42175;46.930;9.532;2023-03-20T00:59:57;1.92;;;0.90;;
56267;SDS011;42175;46.930;9.532;2023-03-20T01:02:25;1.23;;;0.80;;
56267;SDS011;42175;46.930;9.532;2023-03-20T01:04:52;2.55;;;0.98;;
56267;SDS011;42175;46.930;9.532;2023-03-20T01:07:20;3.33;;;1.00;;
56267;SDS011;42175;46.930;9.532;2023-03-20T01:09:46;2.17;;;0.68;;
56267;SDS011;42175;46.930;9.532;2023-03-20T01:12:12;1.70;;;0.70;;
56267;SDS011;42175;46.930;9.532;2023-03-20T01:14:39;1.35;;;0.80;;
56267;SDS011;42175;46.930;9.532;2023-03-20T01:17:08;2.30;;;0.93;;
56267;SDS011;42175;46.930;9.532;2023-03-20T01:19:45;4.20;;;0.90;;
56267;SDS011;42175;46.930;9.532;2023-03-20T01:22:11;1.48;;;0.98;;
56267;SDS011;42175;46.930;9.532;2023-03-20T01:24:38;1.48;;;0.88;;
56267;SDS011;42175;46.930;9.532;2023-03-20T01:27:04;1.27;;;0.90;;
56267;SDS011;42175;46.930;9.532;2023-03-20T01:29:37;1.27;;;0.63;;
56267;SDS011;42175;46.930;9.532;2023-03-20T01:32:04;1.52;;;0.90;;
56267;SDS011;42175;46.930;9.532;2023-03-20T01:34:34;2.53;;;0.93;;
56267;SDS011;42175;46.930;9.532;2023-03-20T01:37:00;1.15;;;0.77;;
56267;SDS011;42175;46.930;9.532;2023-03-20T01:39:27;1.65;;;0.80;;
56267;SDS011;42175;46.930;9.532;2023-03-20T01:41:58;2.58;;;0.80;;
56267;SDS011;42175;46.930;9.532;2023-03-20T01:44:28;3.08;;;0.90;;
56267;SDS011;42175;46.930;9.532;2023-03-20T01:46:56;1.85;;;0.73;;
56267;SDS011;42175;46.930;9.532;2023-03-20T01:51:51;1.45;;;1.00;;
56267;SDS011;42175;46.930;9.532;2023-03-20T01:54:35;1.95;;;0.90;;
56267;SDS011;42175;46.930;9.532;2023-03-20T01:57:10;1.63;;;0.90;;
56267;SDS011;42175;46.930;9.532;2023-03-20T01:59:43;1.17;;;0.80;;
56267;SDS011;42175;46.930;9.532;2023-03-20T02:02:13;1.48;;;0.75;;
56267;SDS011;42175;46.930;9.532;2023-03-20T02:04:44;1.63;;;0.90;;
56267;SDS011;42175;46.930;9.532;2023-03-20T02:07:13;1.48;;;1.00;;
56267;SDS011;42175;46.930;9.532;2023-03-20T02:09:42;1.45;;;0.75;;
56267;SDS011;42175;46.930;9.532;2023-03-20T02:12:10;2.25;;;0.73;;
56267;SDS011;42175;46.930;9.532;2023-03-20T02:14:36;0.75;;;0.60;;
56267;SDS011;42175;46.930;9.532;2023-03-20T02:17:03;1.85;;;0.80;;
56267;SDS011;42175;46.930;9.532;2023-03-20T02:25:18;0.85;;;0.70;;
56267;SDS011;42175;46.930;9.532;2023-03-20T02:31:35;1.02;;;0.50;;
56267;SDS011;42175;46.930;9.532;2023-03-20T02:39:09;1.02;;;0.70;;
56267;SDS011;42175;46.930;9.532;2023-03-20T02:42:17;1.70;;;0.70;;
56267;SDS011;42175;46.930;9.532;2023-03-20T02:47:51;2.60;;;0.63;;
56267;SDS011;42175;46.930;9.532;2023-03-20T02:59:22;1.00;;;0.70;;
56267;SDS011;42175;46.930;9.532;2023-03-20T03:02:15;1.90;;;0.63;;
56267;SDS011;42175;46.930;9.532;2023-03-20T03:04:47;1.65;;;0.70;;
56267;SDS011;42175;46.930;9.532;2023-03-20T03:07:26;3.60;;;0.60;;
56267;SDS011;42175;46.930;9.532;2023-03-20T03:09:58;1.75;;;0.68;;
56267;SDS011;42175;46.930;9.532;2023-03-20T03:12:28;0.80;;;0.50;;
56267;SDS011;42175;46.930;9.532;2023-03-20T03:15:00;0.82;;;0.68;;
56267;SDS011;42175;46.930;9.532;2023-03-20T03:17:33;1.48;;;0.60;;
56267;SDS011;42175;46.930;9.532;2023-03-20T03:20:04;0.88;;;0.63;;
56267;SDS011;42175;46.930;9.532;2023-03-20T03:22:38;0.77;;;0.60;;
56267;SDS011;42175;46.930;9.532;2023-03-20T03:25:04;1.75;;;0.60;;
56267;SDS011;42175;46.930;9.532;2023-03-20T03:27:37;3.28;;;0.60;;
56267;SDS011;42175;46.930;9.532;2023-03-20T03:30:16;0.80;;;0.57;;
56267;SDS011;42175;46.930;9.532;2023-03-20T03:32:49;0.60;;;0.50;;
56267;SDS011;42175;46.930;9.532;2023-03-20T03:35:25;1.30;;;0.70;;
56267;SDS011;42175;46.930;9.532;2023-03-20T03:43:36;0.80;;;0.70;;
56267;SDS011;42175;46.930;9.532;2023-03-20T03:49:07;1.42;;;0.80;;
56267;SDS011;42175;46.930;9.532;2023-03-20T03:51:38;0.60;;;0.60;;
56267;SDS011;42175;46.930;9.532;2023-03-20T03:54:10;1.00;;;0.70;;
56267;SDS011;42175;46.930;9.532;2023-03-20T03:56:43;0.88;;;0.68;;
56267;SDS011;42175;46.930;9.532;2023-03-20T03:59:13;0.75;;;0.63;;
56267;SDS011;42175;46.930;9.532;2023-03-20T04:01:44;1.33;;;0.95;;
56267;SDS011;42175;46.930;9.532;2023-03-20T04:04:12;0.98;;;0.90;;
56267;SDS011;42175;46.930;9.532;2023-03-20T04:06:40;2.47;;;0.80;;
56267;SDS011;42175;46.930;9.532;2023-03-20T04:09:06;1.50;;;0.70;;
56267;SDS011;42175;46.930;9.532;2023-03-20T04:11:32;1.92;;;0.60;;
56267;SDS011;42175;46.930;9.532;2023-03-20T04:13:59;1.05;;;0.70;;
56267;SDS011;42175;46.930;9.532;2023-03-20T04:16:26;0.70;;;0.70;;
56267;SDS011;42175;46.930;9.532;2023-03-20T04:18:52;1.45;;;0.70;;
56267;SDS011;42175;46.930;9.532;2023-03-20T04:21:19;1.70;;;0.70;;
56267;SDS011;42175;46.930;9.532;2023-03-20T04:23:45;1.05;;;0.70;;
56267;SDS011;42175;46.930;9.532;2023-03-20T04:26:11;0.70;;;0.70;;
56267;SDS011;42175;46.930;9.532;2023-03-20T04:28:37;1.00;;;0.60;;
56267;SDS011;42175;46.930;9.532;2023-03-20T04:31:03;2.47;;;0.60;;
56267;SDS011;42175;46.930;9.532;2023-03-20T04:33:29;0.50;;;0.47;;
56267;SDS011;42175;46.930;9.532;2023-03-20T04:35:56;1.13;;;0.60;;
56267;SDS011;42175;46.930;9.532;2023-03-20T04:38:22;0.88;;;0.60;;
56267;SDS011;42175;46.930;9.532;2023-03-20T04:40:48;1.15;;;0.57;;
56267;SDS011;42175;46.930;9.532;2023-03-20T04:43:14;1.08;;;0.60;;
56267;SDS011;42175;46.930;9.532;2023-03-20T04:45:40;1.48;;;0.80;;
56267;SDS011;42175;46.930;9.532;2023-03-20T04:48:07;1.67;;;0.77;;
56267;SDS011;42175;46.930;9.532;2023-03-20T04:50:33;1.25;;;0.70;;
56267;SDS011;42175;46.930;9.532;2023-03-20T04:52:59;0.57;;;0.52;;
56267;SDS011;42175;46.930;9.532;2023-03-20T04:55:25;0.75;;;0.57;;
56267;SDS011;42175;46.930;9.532;2023-03-20T04:57:50;0.82;;;0.70;;
56267;SDS011;42175;46.930;9.532;2023-03-20T05:00:16;1.23;;;0.70;;
56267;SDS011;42175;46.930;9.532;2023-03-20T05:02:43;3.42;;;0.60;;
56267;SDS011;42175;46.930;9.532;2023-03-20T05:05:09;0.88;;;0.60;;
56267;SDS011;42175;46.930;9.532;2023-03-20T05:07:35;0.88;;;0.68;;
56267;SDS011;42175;46.930;9.532;2023-03-20T05:10:02;1.10;;;0.77;;
56267;SDS011;42175;46.930;9.532;2023-03-20T05:12:29;0.60;;;0.60;;
56267;SDS011;42175;46.930;9.532;2023-03-20T05:14:55;1.05;;;0.93;;
56267;SDS011;42175;46.930;9.532;2023-03-20T05:17:21;2.60;;;0.60;;
56267;SDS011;42175;46.930;9.532;2023-03-20T05:19:48;0.65;;;0.52;;
56267;SDS011;42175;46.930;9.532;2023-03-20T05:22:17;0.55;;;0.55;;
56267;SDS011;42175;46.930;9.532;2023-03-20T05:24:43;1.52;;;0.50;;
56267;SDS011;42175;46.930;9.532;2023-03-20T05:27:09;0.80;;;0.50;;
56267;SDS011;42175;46.930;9.532;2023-03-20T05:29:35;4.53;;;0.60;;
56267;SDS011;42175;46.930;9.532;2023-03-20T05:32:01;1.17;;;0.60;;
56267;SDS011;42175;46.930;9.532;2023-03-20T05:34:27;0.73;;;0.70;;
56267;SDS011;42175;46.930;9.532;2023-03-20T05:36:53;2.45;;;0.60;;
56267;SDS011;42175;46.930;9.532;2023-03-20T05:39:19;2.17;;;0.70;;
56267;SDS011;42175;46.930;9.532;2023-03-20T05:41:44;2.47;;;0.70;;
56267;SDS011;42175;46.930;9.532;2023-03-20T05:44:10;0.88;;;0.57;;
56267;SDS011;42175;46.930;9.532;2023-03-20T05:46:36;4.18;;;0.60;;
56267;SDS011;42175;46.930;9.532;2023-03-20T05:49:02;1.92;;;0.60;;
56267;SDS011;42175;46.930;9.532;2023-03-20T05:51:28;2.78;;;0.60;;
56267;SDS011;42175;46.930;9.532;2023-03-20T05:53:54;3.05;;;0.70;;
56267;SDS011;42175;46.930;9.532;2023-03-20T05:56:20;2.17;;;0.57;;
56267;SDS011;42175;46.930;9.532;2023-03-20T05:58:45;9.13;;;2.90;;
56267;SDS011;42175;46.930;9.532;2023-03-20T06:01:11;5.85;;;2.30;;
56267;SDS011;42175;46.930;9.532;2023-03-20T06:03:40;15.77;;;3.05;;
56267;SDS011;42175;46.930;9.532;2023-03-20T06:06:06;18.85;;;3.60;;
56267;SDS011;42175;46.930;9.532;2023-03-20T06:08:32;9.10;;;2.83;;
56267;SDS011;42175;46.930;9.532;2023-03-20T06:10:57;12.82;;;2.72;;
56267;SDS011;42175;46.930;9.532;2023-03-20T06:13:23;11.48;;;3.30;;
56267;SDS011;42175;46.930;9.532;2023-03-20T06:15:49;5.15;;;1.95;;
56267;SDS011;42175;46.930;9.532;2023-03-20T06:18:14;5.28;;;1.90;;
56267;SDS011;42175;46.930;9.532;2023-03-20T06:20:40;5.60;;;2.00;;
56267;SDS011;42175;46.930;9.532;2023-03-20T06:23:06;4.90;;;1.90;;
56267;SDS011;42175;46.930;9.532;2023-03-20T06:25:32;6.35;;;2.38;;
56267;SDS011;42175;46.930;9.532;2023-03-20T06:27:57;4.28;;;1.80;;
56267;SDS011;42175;46.930;9.532;2023-03-20T06:30:23;4.05;;;1.80;;
56267;SDS011;42175;46.930;9.532;2023-03-20T06:32:49;10.55;;;2.13;;
56267;SDS011;42175;46.930;9.532;2023-03-20T06:35:14;4.20;;;1.83;;
56267;SDS011;42175;46.930;9.532;2023-03-20T06:37:42;7.38;;;1.70;;
56267;SDS011;42175;46.930;9.532;2023-03-20T06:40:07;14.63;;;8.50;;
56267;SDS011;42175;46.930;9.532;2023-03-20T06:42:34;93.90;;;30.75;;
56267;SDS011;42175;46.930;9.532;2023-03-20T06:45:00;111.32;;;30.63;;
56267;SDS011;42175;46.930;9.532;2023-03-20T06:47:25;86.07;;;24.13;;
56267;SDS011;42175;46.930;9.532;2023-03-20T06:49:51;90.65;;;21.73;;
56267;SDS011;42175;46.930;9.532;2023-03-20T06:52:18;74.95;;;19.95;;
56267;SDS011;42175;46.930;9.532;2023-03-20T06:54:46;63.92;;;17.42;;
56267;SDS011;42175;46.930;9.532;2023-03-20T06:57:12;59.95;;;16.10;;
56267;SDS011;42175;46.930;9.532;2023-03-20T06:59:38;58.10;;;15.68;;
56267;SDS011;42175;46.930;9.532;2023-03-20T07:02:04;62.25;;;14.75;;
56267;SDS011;42175;46.930;9.532;2023-03-20T07:04:31;60.28;;;15.30;;
56267;SDS011;42175;46.930;9.532;2023-03-20T07:06:57;57.17;;;13.77;;
56267;SDS011;42175;46.930;9.532;2023-03-20T07:09:24;36.17;;;11.70;;
56267;SDS011;42175;46.930;9.532;2023-03-20T07:11:50;50.85;;;11.57;;
56267;SDS011;42175;46.930;9.532;2023-03-20T07:14:17;42.97;;;10.85;;
56267;SDS011;42175;46.930;9.532;2023-03-20T07:16:43;39.67;;;10.45;;
56267;SDS011;42175;46.930;9.532;2023-03-20T07:19:09;32.20;;;8.52;;
56267;SDS011;42175;46.930;9.532;2023-03-20T07:21:35;34.92;;;8.85;;
56267;SDS011;42175;46.930;9.532;2023-03-20T07:24:01;32.70;;;8.18;;
56267;SDS011;42175;46.930;9.532;2023-03-20T07:26:26;31.75;;;9.30;;
56267;SDS011;42175;46.930;9.532;2023-03-20T07:28:53;29.80;;;7.75;;
56267;SDS011;42175;46.930;9.532;2023-03-20T07:31:20;27.65;;;7.72;;
56267;SDS011;42175;46.930;9.532;2023-03-20T07:33:47;25.33;;;7.63;;
56267;SDS011;42175;46.930;9.532;2023-03-20T07:36:13;29.55;;;7.10;;
56267;SDS011;42175;46.930;9.532;2023-03-20T07:38:39;27.48;;;6.78;;
56267;SDS011;42175;46.930;9.532;2023-03-20T07:41:05;29.25;;;7.35;;
56267;SDS011;42175;46.930;9.532;2023-03-20T07:43:31;27.98;;;6.47;;
56267;SDS011;42175;46.930;9.532;2023-03-20T07:45:57;22.35;;;5.93;;
56267;SDS011;42175;46.930;9.532;2023-03-20T07:48:26;25.80;;;6.85;;
56267;SDS011;42175;46.930;9.532;2023-03-20T07:50:52;21.70;;;6.22;;
56267;SDS011;42175;46.930;9.532;2023-03-20T07:53:18;26.30;;;6.70;;
56267;SDS011;42175;46.930;9.532;2023-03-20T07:55:44;22.88;;;5.43;;
56267;SDS011;42175;46.930;9.532;2023-03-20T07:58:09;25.45;;;5.40;;
56267;SDS011;42175;46.930;9.532;2023-03-20T08:00:35;24.50;;;6.53;;
56267;SDS011;42175;46.930;9.532;2023-03-20T08:03:01;22.00;;;5.13;;
56267;SDS011;42175;46.930;9.532;2023-03-20T08:05:27;18.85;;;5.25;;
56267;SDS011;42175;46.930;9.532;2023-03-20T08:07:53;20.02;;;5.30;;
56267;SDS011;42175;46.930;9.532;2023-03-20T08:10:18;18.00;;;4.95;;
56267;SDS011;42175;46.930;9.532;2023-03-20T08:12:44;17.10;;;4.28;;
56267;SDS011;42175;46.930;9.532;2023-03-20T08:15:10;20.42;;;4.80;;
56267;SDS011;42175;46.930;9.532;2023-03-20T08:17:36;13.63;;;4.38;;
56267;SDS011;42175;46.930;9.532;2023-03-20T08:20:05;21.50;;;5.18;;
56267;SDS011;42175;46.930;9.532;2023-03-20T08:22:31;19.10;;;4.95;;
56267;SDS011;42175;46.930;9.532;2023-03-20T08:24:57;14.13;;;3.80;;
56267;SDS011;42175;46.930;9.532;2023-03-20T08:27:23;19.38;;;5.78;;
56267;SDS011;42175;46.930;9.532;2023-03-20T08:29:49;13.98;;;4.15;;
56267;SDS011;42175;46.930;9.532;2023-03-20T08:32:14;18.98;;;4.18;;
56267;SDS011;42175;46.930;9.532;2023-03-20T08:34:40;14.40;;;4.30;;
56267;SDS011;42175;46.930;9.532;2023-03-20T08:37:06;16.52;;;4.15;;
56267;SDS011;42175;46.930;9.532;2023-03-20T08:39:32;16.13;;;4.03;;
56267;SDS011;42175;46.930;9.532;2023-03-20T08:41:57;5.93;;;1.77;;
56267;SDS011;42175;46.930;9.532;2023-03-20T08:44:23;5.95;;;1.40;;
56267;SDS011;42175;46.930;9.532;2023-03-20T08:46:50;6.20;;;1.70;;
56267;SDS011;42175;46.930;9.532;2023-03-20T08:49:17;4.03;;;1.20;;
56267;SDS011;42175;46.930;9.532;2023-03-20T08:51:43;2.78;;;1.10;;
56267;SDS011;42175;46.930;9.532;2023-03-20T08:54:09;1.90;;;1.25;;
56267;SDS011;42175;46.930;9.532;2023-03-20T08:56:35;2.83;;;1.10;;
56267;SDS011;42175;46.930;9.532;2023-03-20T08:59:01;2.15;;;1.20;;
56267;SDS011;42175;46.930;9.532;2023-03-20T09:01:27;1.08;;;0.85;;
56267;SDS011;42175;46.930;9.532;2023-03-20T09:03:53;3.67;;;1.42;;
56267;SDS011;42175;46.930;9.532;2023-03-20T09:06:19;2.17;;;1.25;;
56267;SDS011;42175;46.930;9.532;2023-03-20T09:08:45;2.92;;;1.60;;
56267;SDS011;42175;46.930;9.532;2023-03-20T09:11:11;1.88;;;1.23;;
56267;SDS011;42175;46.930;9.532;2023-03-20T09:13:37;7.57;;;1.30;;
56267;SDS011;42175;46.930;9.532;2023-03-20T09:16:03;3.25;;;1.30;;
56267;SDS011;42175;46.930;9.532;2023-03-20T09:18:29;4.50;;;1.50;;
56267;SDS011;42175;46.930;9.532;2023-03-20T09:20:55;5.05;;;1.35;;
56267;SDS011;42175;46.930;9.532;2023-03-20T09:23:21;5.93;;;1.20;;
56267;SDS011;42175;46.930;9.532;2023-03-20T09:25:46;3.85;;;1.05;;
56267;SDS011;42175;46.930;9.532;2023-03-20T09:28:12;2.72;;;0.80;;
56267;SDS011;42175;46.930;9.532;2023-03-20T09:30:38;2.45;;;0.90;;
56267;SDS011;42175;46.930;9.532;2023-03-20T09:33:04;8.10;;;1.58;;
56267;SDS011;42175;46.930;9.532;2023-03-20T09:35:30;2.08;;;1.30;;
56267;SDS011;42175;46.930;9.532;2023-03-20T09:37:56;3.17;;;1.23;;
56267;SDS011;42175;46.930;9.532;2023-03-20T09:40:32;2.65;;;1.60;;
56267;SDS011;42175;46.930;9.532;2023-03-20T09:49:25;2.50;;;1.30;;
56267;SDS011;42175;46.930;9.532;2023-03-20T09:51:58;6.50;;;1.58;;
56267;SDS011;42175;46.930;9.532;2023-03-20T09:57:05;5.22;;;1.60;;
56267;SDS011;42175;46.930;9.532;2023-03-20T09:59:39;3.15;;;1.58;;
56267;SDS011;42175;46.930;9.532;2023-03-20T10:02:07;2.00;;;1.38;;
56267;SDS011;42175;46.930;9.532;2023-03-20T10:04:40;5.07;;;1.60;;
56267;SDS011;42175;46.930;9.532;2023-03-20T10:07:08;3.78;;;1.80;;
56267;SDS011;42175;46.930;9.532;2023-03-20T10:09:42;5.35;;;1.83;;
56267;SDS011;42175;46.930;9.532;2023-03-20T10:17:48;3.70;;;1.70;;
56267;SDS011;42175;46.930;9.532;2023-03-20T10:20:31;5.97;;;1.77;;
56267;SDS011;42175;46.930;9.532;2023-03-20T10:23:12;6.72;;;1.73;;
56267;SDS011;42175;46.930;9.532;2023-03-20T10:25:46;2.45;;;1.63;;
56267;SDS011;42175;46.930;9.532;2023-03-20T10:28:17;1.73;;;1.17;;
56267;SDS011;42175;46.930;9.532;2023-03-20T10:30:48;2.65;;;1.33;;
56267;SDS011;42175;46.930;9.532;2023-03-20T10:42:20;2.40;;;1.00;;
56267;SDS011;42175;46.930;9.532;2023-03-20T10:44:57;3.58;;;1.10;;
56267;SDS011;42175;46.930;9.532;2023-03-20T10:47:44;3.50;;;1.10;;
56267;SDS011;42175;46.930;9.532;2023-03-20T10:50:22;2.53;;;1.33;;
56267;SDS011;42175;46.930;9.532;2023-03-20T10:52:52;3.45;;;0.98;;
56267;SDS011;42175;46.930;9.532;2023-03-20T10:55:22;1.55;;;1.10;;
56267;SDS011;42175;46.930;9.532;2023-03-20T10:58:01;6.30;;;1.25;;
56267;SDS011;42175;46.930;9.532;2023-03-20T11:00:32;3.25;;;1.10;;
56267;SDS011;42175;46.930;9.532;2023-03-20T11:02:58;3.30;;;1.20;;
56267;SDS011;42175;46.930;9.532;2023-03-20T11:05:27;2.20;;;1.45;;
56267;SDS011;42175;46.930;9.532;2023-03-20T11:08:04;4.32;;;1.13;;
56267;SDS011;42175;46.930;9.532;2023-03-20T11:10:38;2.15;;;1.10;;
56267;SDS011;42175;46.930;9.532;2023-03-20T11:13:13;2.10;;;1.20;;
56267;SDS011;42175;46.930;9.532;2023-03-20T11:16:06;3.35;;;1.15;;
56267;SDS011;42175;46.930;9.532;2023-03-20T11:18:33;4.00;;;1.30;;
56267;SDS011;42175;46.930;9.532;2023-03-20T11:21:00;5.13;;;1.70;;
56267;SDS011;42175;46.930;9.532;2023-03-20T11:23:28;7.03;;;1.35;;
56267;SDS011;42175;46.930;9.532;2023-03-20T11:25:58;4.43;;;1.20;;
56267;SDS011;42175;46.930;9.532;2023-03-20T11:31:03;7.70;;;1.70;;
56267;SDS011;42175;46.930;9.532;2023-03-20T11:33:29;6.47;;;1.30;;
56267;SDS011;42175;46.930;9.532;2023-03-20T11:35:56;6.75;;;1.52;;
56267;SDS011;42175;46.930;9.532;2023-03-20T11:38:23;4.70;;;1.60;;
56267;SDS011;42175;46.930;9.532;2023-03-20T11:40:50;8.68;;;1.80;;
56267;SDS011;42175;46.930;9.532;2023-03-20T11:43:20;10.88;;;1.70;;
56267;SDS011;42175;46.930;9.532;2023-03-20T11:45:53;5.32;;;1.63;;
56267;SDS011;42175;46.930;9.532;2023-03-20T11:48:35;4.57;;;1.30;;
56267;SDS011;42175;46.930;9.532;2023-03-20T11:51:03;5.40;;;1.55;;
56267;SDS011;42175;46.930;9.532;2023-03-20T11:53:32;11.70;;;1.60;;
56267;SDS011;42175;46.930;9.532;2023-03-20T11:56:13;8.48;;;1.67;;
56267;SDS011;42175;46.930;9.532;2023-03-20T11:59:13;4.57;;;1.42;;
56267;SDS011;42175;46.930;9.532;2023-03-20T12:01:38;4.72;;;1.60;;
56267;SDS011;42175;46.930;9.532;2023-03-20T12:04:27;5.05;;;1.85;;
56267;SDS011;42175;46.930;9.532;2023-03-20T12:14:26;10.52;;;1.60;;
56267;SDS011;42175;46.930;9.532;2023-03-20T12:17:09;5.32;;;1.48;;
56267;SDS011;42175;46.930;9.532;2023-03-20T12:20:01;6.22;;;1.80;;
56267;SDS011;42175;46.930;9.532;2023-03-20T12:22:39;3.30;;;1.10;;
56267;SDS011;42175;46.930;9.532;2023-03-20T12:25:19;9.55;;;1.67;;
56267;SDS011;42175;46.930;9.532;2023-03-20T12:30:28;2.33;;;1.05;;
56267;SDS011;42175;46.930;9.532;2023-03-20T12:33:14;3.22;;;1.15;;
56267;SDS011;42175;46.930;9.532;2023-03-20T12:35:43;3.22;;;1.30;;
56267;SDS011;42175;46.930;9.532;2023-03-20T12:38:17;7.07;;;1.77;;
56267;SDS011;42175;46.930;9.532;2023-03-20T12:41:20;3.70;;;1.10;;
56267;SDS011;42175;46.930;9.532;2023-03-20T12:43:59;3.05;;;1.15;;
56267;SDS011;42175;46.930;9.532;2023-03-20T12:55:04;3.55;;;1.20;;
56267;SDS011;42175;46.930;9.532;2023-03-20T12:58:09;2.78;;;1.13;;
56267;SDS011;42175;46.930;9.532;2023-03-20T13:14:42;2.90;;;1.20;;
56267;SDS011;42175;46.930;9.532;2023-03-20T13:17:22;4.57;;;1.40;;
56267;SDS011;42175;46.930;9.532;2023-03-20T13:22:47;3.40;;;1.30;;
56267;SDS011;42175;46.930;9.532;2023-03-20T13:30:32;5.60;;;1.67;;
56267;SDS011;42175;46.930;9.532;2023-03-20T13:33:25;3.55;;;1.33;;
56267;SDS011;42175;46.930;9.532;2023-03-20T13:39:32;3.45;;;1.40;;
56267;SDS011;42175;46.930;9.532;2023-03-20T13:41:51;4.60;;;1.17;;
56267;SDS011;42175;46.930;9.532;2023-03-20T13:44:18;2.28;;;1.13;;
56267;SDS011;42175;46.930;9.532;2023-03-20T13:46:53;2.20;;;1.15;;
56267;SDS011;42175;46.930;9.532;2023-03-20T13:52:46;1.90;;;1.10;;
56267;SDS011;42175;46.930;9.532;2023-03-20T14:01:07;3.28;;;1.55;;
56267;SDS011;42175;46.930;9.532;2023-03-20T14:03:57;2.80;;;1.45;;
56267;SDS011;42175;46.930;9.532;2023-03-20T14:08:56;1.67;;;1.20;;
56267;SDS011;42175;46.930;9.532;2023-03-20T14:16:40;3.67;;;1.23;;
56267;SDS011;42175;46.930;9.532;2023-03-20T14:19:16;1.88;;;1.10;;
56267;SDS011;42175;46.930;9.532;2023-03-20T14:21:47;5.00;;;1.30;;
56267;SDS011;42175;46.930;9.532;2023-03-20T14:24:17;3.10;;;1.75;;
56267;SDS011;42175;46.930;9.532;2023-03-20T14:26:48;2.63;;;1.13;;
56267;SDS011;42175;46.930;9.532;2023-03-20T14:31:42;8.52;;;1.98;;
56267;SDS011;42175;46.930;9.532;2023-03-20T14:34:18;26.90;;;4.70;;
56267;SDS011;42175;46.930;9.532;2023-03-20T14:36:58;32.33;;;5.50;;
56267;SDS011;42175;46.930;9.532;2023-03-20T15:04:18;17.23;;;3.95;;
56267;SDS011;42175;46.930;9.532;2023-03-20T15:07:12;19.70;;;4.35;;
56267;SDS011;42175;46.930;9.532;2023-03-20T15:09:40;22.83;;;4.40;;
56267;SDS011;42175;46.930;9.532;2023-03-20T15:12:11;19.73;;;4.03;;
56267;SDS011;42175;46.930;9.532;2023-03-20T15:15:04;22.77;;;4.05;;
56267;SDS011;42175;46.930;9.532;2023-03-20T15:17:37;17.42;;;4.97;;
56267;SDS011;42175;46.930;9.532;2023-03-20T15:20:14;31.88;;;4.40;;
56267;SDS011;42175;46.930;9.532;2023-03-20T15:25:19;14.38;;;3.72;;
56267;SDS011;42175;46.930;9.532;2023-03-20T15:27:46;15.77;;;3.85;;
56267;SDS011;42175;46.930;9.532;2023-03-20T15:30:14;22.42;;;4.10;;
56267;SDS011;42175;46.930;9.532;2023-03-20T15:32:42;22.35;;;4.57;;
56267;SDS011;42175;46.930;9.532;2023-03-20T15:35:10;13.50;;;3.72;;
56267;SDS011;42175;46.930;9.532;2023-03-20T15:37:39;12.32;;;3.17;;
56267;SDS011;42175;46.930;9.532;2023-03-20T15:40:09;17.58;;;4.15;;
56267;SDS011;42175;46.930;9.532;2023-03-20T15:42:38;14.95;;;3.00;;
56267;SDS011;42175;46.930;9.532;2023-03-20T15:45:15;15.32;;;3.60;;
56267;SDS011;42175;46.930;9.532;2023-03-20T15:47:58;13.30;;;3.22;;
56267;SDS011;42175;46.930;9.532;2023-03-20T15:50:35;14.38;;;3.28;;
56267;SDS011;42175;46.930;9.532;2023-03-20T15:53:03;16.02;;;3.70;;
56267;SDS011;42175;46.930;9.532;2023-03-20T15:55:32;17.08;;;3.25;;
56267;SDS011;42175;46.930;9.532;2023-03-20T15:57:58;11.15;;;2.80;;
56267;SDS011;42175;46.930;9.532;2023-03-20T16:00:28;11.27;;;3.75;;
56267;SDS011;42175;46.930;9.532;2023-03-20T16:02:59;12.70;;;3.00;;
56267;SDS011;42175;46.930;9.532;2023-03-20T16:05:28;16.02;;;2.75;;
56267;SDS011;42175;46.930;9.532;2023-03-20T16:07:55;15.45;;;3.92;;
56267;SDS011;42175;46.930;9.532;2023-03-20T16:10:26;15.15;;;2.88;;
56267;SDS011;42175;46.930;9.532;2023-03-20T16:12:54;12.38;;;2.90;;
56267;SDS011;42175;46.930;9.532;2023-03-20T16:15:20;11.02;;;3.00;;
56267;SDS011;42175;46.930;9.532;2023-03-20T16:17:51;18.17;;;3.92;;
56267;SDS011;42175;46.930;9.532;2023-03-20T16:20:20;10.02;;;2.42;;
56267;SDS011;42175;46.930;9.532;2023-03-20T16:22:47;12.23;;;2.40;;
56267;SDS011;42175;46.930;9.532;2023-03-20T16:25:17;10.10;;;2.72;;
56267;SDS011;42175;46.930;9.532;2023-03-20T16:27:44;13.30;;;3.83;;
56267;SDS011;42175;46.930;9.532;2023-03-20T16:30:13;15.25;;;3.40;;
56267;SDS011;42175;46.930;9.532;2023-03-20T16:32:46;17.55;;;3.30;;
56267;SDS011;42175;46.930;9.532;2023-03-20T16:35:19;11.52;;;2.90;;
56267;SDS011;42175;46.930;9.532;2023-03-20T16:37:53;11.02;;;3.47;;
56267;SDS011;42175;46.930;9.532;2023-03-20T16:42:52;9.75;;;3.08;;
56267;SDS011;42175;46.930;9.532;2023-03-20T16:47:50;10.05;;;2.50;;
56267;SDS011;42175;46.930;9.532;2023-03-20T16:50:32;11.32;;;3.13;;
56267;SDS011;42175;46.930;9.532;2023-03-20T16:52:59;6.60;;;2.03;;
56267;SDS011;42175;46.930;9.532;2023-03-20T16:55:29;7.15;;;2.17;;
56267;SDS011;42175;46.930;9.532;2023-03-20T16:58:00;8.40;;;2.53;;
56267;SDS011;42175;46.930;9.532;2023-03-20T17:00:31;10.40;;;2.38;;
56267;SDS011;42175;46.930;9.532;2023-03-20T17:03:08;5.70;;;2.05;;
56267;SDS011;42175;46.930;9.532;2023-03-20T17:05:55;8.82;;;2.10;;
56267;SDS011;42175;46.930;9.532;2023-03-20T17:08:41;7.18;;;2.33;;
56267;SDS011;42175;46.930;9.532;2023-03-20T17:11:14;7.07;;;2.35;;
56267;SDS011;42175;46.930;9.532;2023-03-20T17:14:00;6.55;;;1.85;;
56267;SDS011;42175;46.930;9.532;2023-03-20T17:16:26;9.40;;;2.38;;
56267;SDS011;42175;46.930;9.532;2023-03-20T17:21:25;7.57;;;1.80;;
56267;SDS011;42175;46.930;9.532;2023-03-20T17:23:51;4.30;;;1.70;;
56267;SDS011;42175;46.930;9.532;2023-03-20T17:26:17;4.28;;;1.90;;
56267;SDS011;42175;46.930;9.532;2023-03-20T17:28:42;7.65;;;2.28;;
56267;SDS011;42175;46.930;9.532;2023-03-20T17:31:12;7.82;;;2.03;;
56267;SDS011;42175;46.930;9.532;2023-03-20T17:33:39;4.32;;;1.90;;
56267;SDS011;42175;46.930;9.532;2023-03-20T17:36:16;9.60;;;2.15;;
56267;SDS011;42175;46.930;9.532;2023-03-20T17:38:54;4.82;;;1.67;;
56267;SDS011;42175;46.930;9.532;2023-03-20T17:41:21;6.55;;;1.85;;
56267;SDS011;42175;46.930;9.532;2023-03-20T17:43:48;9.27;;;2.03;;
56267;SDS011;42175;46.930;9.532;2023-03-20T17:46:16;6.95;;;1.75;;
56267;SDS011;42175;46.930;9.532;2023-03-20T17:48:42;3.22;;;1.50;;
56267;SDS011;42175;46.930;9.532;2023-03-20T17:51:07;6.30;;;1.92;;